createdAt,value
2018-08-03T00:01:46.020Z,75.80
2018-08-03T00:04:13.877Z,78.50
2018-08-03T00:06:41.749Z,77.70
2018-08-03T00:09:10.019Z,75.90
2018-08-03T00:11:38.417Z,79.70
2018-08-03T00:14:06.272Z,79.90
2018-08-03T00:16:34.123Z,80.00
2018-08-03T00:19:02.013Z,80.20
2018-08-03T00:23:58.051Z,80.20
2018-08-03T00:26:25.846Z,80.00
2018-08-03T00:28:53.696Z,79.40
2018-08-03T00:31:21.820Z,80.90
2018-08-03T00:33:49.623Z,81.10
2018-08-03T00:36:17.648Z,81.30
2018-08-03T00:38:45.720Z,81.20
2018-08-03T00:41:13.580Z,81.90
2018-08-03T00:43:41.479Z,82.20
2018-08-03T00:46:09.300Z,82.00
2018-08-03T00:48:37.127Z,82.00
2018-08-03T00:51:05.057Z,82.20
2018-08-03T00:53:32.839Z,82.40
2018-08-03T00:58:28.435Z,81.60
2018-08-03T01:00:56.159Z,81.80
2018-08-03T01:03:24.026Z,82.90
2018-08-03T01:05:52.066Z,82.90
2018-08-03T01:08:19.782Z,81.80
2018-08-03T01:10:47.661Z,83.30
2018-08-03T01:13:15.499Z,82.70
2018-08-03T01:15:43.301Z,83.40
2018-08-03T01:18:11.115Z,82.80
2018-08-03T01:20:38.927Z,82.70
2018-08-03T01:23:06.696Z,83.30
2018-08-03T01:25:34.471Z,81.80
2018-08-03T01:28:02.263Z,83.20
2018-08-03T01:30:30.155Z,79.60
2018-08-03T01:32:57.920Z,83.70
2018-08-03T01:35:25.824Z,84.20
2018-08-03T01:37:53.654Z,84.10
2018-08-03T01:40:21.524Z,84.50
2018-08-03T01:42:49.343Z,84.70
2018-08-03T01:45:17.107Z,84.00
2018-08-03T01:47:44.911Z,83.70
2018-08-03T01:52:40.481Z,84.70
2018-08-03T01:55:08.226Z,83.80
2018-08-03T01:57:36.064Z,84.30
2018-08-03T02:00:04.266Z,83.90
2018-08-03T02:02:32.143Z,83.90
2018-08-03T02:05:00.628Z,84.70
2018-08-03T02:07:28.463Z,82.70
2018-08-03T02:09:56.344Z,84.30
2018-08-03T02:12:24.195Z,84.20
2018-08-03T02:14:52.076Z,83.60
2018-08-03T02:17:19.931Z,83.50
2018-08-03T02:19:47.787Z,83.50
2018-08-03T02:22:15.714Z,84.30
2018-08-03T02:24:43.565Z,85.00
2018-08-03T02:27:11.428Z,84.50
2018-08-03T02:29:39.270Z,84.40
2018-08-03T02:32:07.155Z,84.50
2018-08-03T02:34:34.957Z,84.00
2018-08-03T02:37:02.747Z,84.20
2018-08-03T02:39:30.547Z,84.00
2018-08-03T02:41:58.348Z,83.40
2018-08-03T02:44:26.112Z,82.90
2018-08-03T02:46:53.939Z,84.70
2018-08-03T02:49:21.763Z,84.50
2018-08-03T02:51:49.526Z,84.50
2018-08-03T02:54:17.333Z,84.70
2018-08-03T02:56:45.111Z,84.80
2018-08-03T02:59:12.928Z,84.30
2018-08-03T03:01:40.768Z,85.50
2018-08-03T03:04:08.860Z,86.00
2018-08-03T03:06:36.680Z,85.50
2018-08-03T03:09:08.419Z,86.20
2018-08-03T03:11:36.390Z,85.50
2018-08-03T03:14:04.390Z,86.40
2018-08-03T03:16:32.211Z,86.40
2018-08-03T03:19:00.275Z,86.90
2018-08-03T03:21:28.111Z,86.80
2018-08-03T03:23:55.907Z,87.60
2018-08-03T03:26:23.755Z,87.10
2018-08-03T03:28:51.651Z,86.10
2018-08-03T03:31:19.405Z,88.40
2018-08-03T03:33:47.249Z,88.30
2018-08-03T03:36:15.033Z,87.80
2018-08-03T03:38:42.827Z,88.00
2018-08-03T03:41:10.725Z,87.50
2018-08-03T03:43:38.504Z,88.60
2018-08-03T03:46:06.927Z,87.00
2018-08-03T03:48:34.759Z,89.50
2018-08-03T03:51:02.630Z,89.40
2018-08-03T03:58:26.107Z,89.60
2018-08-03T04:03:21.817Z,89.30
2018-08-03T04:05:49.725Z,89.70
2018-08-03T04:08:17.498Z,89.40
2018-08-03T04:10:45.367Z,89.50
2018-08-03T04:15:41.003Z,90.00
2018-08-03T04:20:38.135Z,90.10
2018-08-03T04:23:06.482Z,90.20
2018-08-03T04:25:34.285Z,89.70
2018-08-03T04:28:02.044Z,89.70
2018-08-03T04:30:29.834Z,89.50
2018-08-03T04:32:57.676Z,90.10
2018-08-03T04:35:25.553Z,88.60
2018-08-03T04:37:53.360Z,90.00
2018-08-03T04:40:21.202Z,88.80
2018-08-03T04:42:49.018Z,90.00
2018-08-03T04:45:16.840Z,89.20
2018-08-03T04:47:44.632Z,90.00
2018-08-03T04:50:12.420Z,90.00
2018-08-03T04:52:40.235Z,88.60
2018-08-03T04:55:08.532Z,89.60
2018-08-03T04:57:36.339Z,89.70
2018-08-03T05:00:04.704Z,88.90
2018-08-03T05:02:32.531Z,89.10
2018-08-03T05:05:00.341Z,89.40
2018-08-03T05:07:28.109Z,88.40
2018-08-03T05:09:55.858Z,87.10
2018-08-03T05:12:23.683Z,88.60
2018-08-03T05:14:51.496Z,88.10
2018-08-03T05:17:19.335Z,88.10
2018-08-03T05:19:47.171Z,87.50
2018-08-03T05:22:15.047Z,86.70
2018-08-03T05:24:42.845Z,86.90
2018-08-03T05:27:10.608Z,85.80
2018-08-03T05:29:38.372Z,85.50
2018-08-03T05:32:06.306Z,84.50
2018-08-03T05:34:34.146Z,83.80
2018-08-03T05:37:02.311Z,82.60
2018-08-03T05:39:30.163Z,82.00
2018-08-03T05:41:58.019Z,81.90
2018-08-03T05:44:25.873Z,80.30
2018-08-03T05:46:53.620Z,76.90
2018-08-03T05:49:21.511Z,74.80
2018-08-03T05:51:49.371Z,73.00
2018-08-03T05:54:17.169Z,71.80
2018-08-03T05:56:45.052Z,70.60
2018-08-03T05:59:13.043Z,70.40
2018-08-03T06:01:40.961Z,70.80
2018-08-03T06:04:12.475Z,72.60
2018-08-03T06:06:40.329Z,72.20
2018-08-03T06:09:09.488Z,72.50
2018-08-03T06:11:37.423Z,72.70
2018-08-03T06:14:06.062Z,71.60
2018-08-03T06:16:33.968Z,72.30
2018-08-03T06:19:02.116Z,72.60
2018-08-03T06:21:30.795Z,73.00
2018-08-03T06:23:58.826Z,73.70
2018-08-03T06:26:26.671Z,73.10
2018-08-03T06:28:54.672Z,72.80
2018-08-03T06:31:22.522Z,73.10
2018-08-03T06:33:50.519Z,73.20
2018-08-03T06:36:18.392Z,72.30
2018-08-03T06:38:46.349Z,72.60
2018-08-03T06:41:14.236Z,72.60
2018-08-03T06:43:42.168Z,72.40
2018-08-03T06:46:10.722Z,72.50
2018-08-03T06:48:38.511Z,71.70
2018-08-03T06:51:06.647Z,71.80
2018-08-03T06:53:34.692Z,71.50
2018-08-03T06:56:02.695Z,71.70
2018-08-03T06:58:30.588Z,70.60
2018-08-03T07:00:58.856Z,70.60
2018-08-03T07:03:26.764Z,71.60
2018-08-03T07:05:54.715Z,70.50
2018-08-03T07:08:22.699Z,69.60
2018-08-03T07:13:18.332Z,69.30
2018-08-03T07:18:14.160Z,68.80
2018-08-03T07:20:42.088Z,69.10
2018-08-03T07:23:09.833Z,69.60
2018-08-03T07:25:37.670Z,68.10
2018-08-03T07:28:05.630Z,67.80
2018-08-03T07:30:33.455Z,67.90
2018-08-03T07:33:01.356Z,67.40
2018-08-03T07:35:29.109Z,66.20
2018-08-03T07:37:57.007Z,67.10
2018-08-03T07:40:24.775Z,66.30
2018-08-03T07:42:52.573Z,65.70
2018-08-03T07:45:20.391Z,65.80
2018-08-03T07:47:48.244Z,63.90
2018-08-03T07:50:16.032Z,65.40
2018-08-03T07:52:43.880Z,64.90
2018-08-03T07:55:11.761Z,64.70
2018-08-03T07:57:39.544Z,65.00
2018-08-03T08:00:07.455Z,63.90
2018-08-03T08:02:35.255Z,63.30
2018-08-03T08:05:03.131Z,62.90
2018-08-03T08:09:58.816Z,61.80
2018-08-03T08:12:26.627Z,61.00
2018-08-03T08:14:54.472Z,60.40
2018-08-03T08:17:22.320Z,61.10
2018-08-03T08:19:50.036Z,61.10
2018-08-03T08:22:17.864Z,60.80
2018-08-03T08:24:45.662Z,60.70
2018-08-03T08:27:13.551Z,60.10
2018-08-03T08:29:41.381Z,60.30
2018-08-03T08:32:09.229Z,60.00
2018-08-03T08:34:37.071Z,60.00
2018-08-03T08:37:05.274Z,59.20
2018-08-03T08:39:33.055Z,59.30
2018-08-03T08:42:00.916Z,58.60
2018-08-03T08:44:28.851Z,57.80
2018-08-03T08:46:56.629Z,58.00
2018-08-03T08:49:24.404Z,57.80
2018-08-03T08:51:52.235Z,57.10
2018-08-03T08:54:20.050Z,57.50
2018-08-03T08:56:47.840Z,57.70
2018-08-03T08:59:15.674Z,57.70
2018-08-03T09:01:43.535Z,57.40
2018-08-03T09:04:11.347Z,56.30
2018-08-03T09:09:09.245Z,56.00
2018-08-03T09:11:37.600Z,55.60
2018-08-03T09:14:05.599Z,55.70
2018-08-03T09:16:33.439Z,55.10
2018-08-03T09:19:01.284Z,54.80
2018-08-03T09:21:29.125Z,54.50
2018-08-03T09:23:56.990Z,55.30
2018-08-03T09:26:24.813Z,54.10
2018-08-03T09:28:52.671Z,54.40
2018-08-03T09:31:20.424Z,53.30
2018-08-03T09:33:48.342Z,52.90
2018-08-03T09:36:16.184Z,53.30
2018-08-03T09:38:44.013Z,53.50
2018-08-03T09:41:11.866Z,52.90
2018-08-03T09:43:39.683Z,52.70
2018-08-03T09:46:07.543Z,52.30
2018-08-03T09:48:35.427Z,50.70
2018-08-03T09:51:03.245Z,51.70
2018-08-03T09:53:31.055Z,50.90
2018-08-03T09:55:58.824Z,49.50
2018-08-03T09:58:26.695Z,50.20
2018-08-03T10:00:55.975Z,49.60
2018-08-03T10:03:24.427Z,49.20
2018-08-03T10:05:52.244Z,48.80
2018-08-03T10:08:20.195Z,48.90
2018-08-03T10:13:16.475Z,49.30
2018-08-03T10:15:44.307Z,47.90
2018-08-03T10:20:40.073Z,47.00
2018-08-03T10:23:08.163Z,46.30
2018-08-03T10:28:03.751Z,44.80
2018-08-03T10:30:31.551Z,43.80
2018-08-03T10:32:59.287Z,44.00
2018-08-03T10:35:27.191Z,44.20
2018-08-03T10:37:54.976Z,43.50
2018-08-03T10:42:50.836Z,42.30
2018-08-03T10:45:18.599Z,42.00
2018-08-03T10:47:46.378Z,42.60
2018-08-03T10:50:14.927Z,42.50
2018-08-03T10:52:42.956Z,42.10
2018-08-03T10:55:10.840Z,40.80
2018-08-03T10:57:38.699Z,40.10
2018-08-03T11:00:07.859Z,37.50
2018-08-03T11:02:35.699Z,37.10
2018-08-03T11:05:03.739Z,35.40
2018-08-03T11:07:31.491Z,34.60
2018-08-03T11:09:59.343Z,33.80
2018-08-03T11:12:27.143Z,32.80
2018-08-03T11:14:54.962Z,32.30
2018-08-03T11:17:22.832Z,30.60
2018-08-03T11:19:50.620Z,31.20
2018-08-03T11:22:18.471Z,29.90
2018-08-03T11:24:46.367Z,30.10
2018-08-03T11:27:14.173Z,30.60
2018-08-03T11:29:42.023Z,30.80
2018-08-03T11:32:09.887Z,30.50
2018-08-03T11:34:37.707Z,30.00
2018-08-03T11:37:05.641Z,29.60
2018-08-03T11:39:33.453Z,29.50
2018-08-03T11:42:01.623Z,29.60
2018-08-03T11:44:29.400Z,29.70
2018-08-03T11:46:57.219Z,29.50
2018-08-03T11:49:25.039Z,28.80
2018-08-03T11:51:52.828Z,28.40
2018-08-03T11:54:20.670Z,27.40
2018-08-03T11:56:48.471Z,28.40
2018-08-03T11:59:16.269Z,27.90
2018-08-03T12:01:44.098Z,28.20
2018-08-03T12:04:11.983Z,27.80
2018-08-03T12:06:39.806Z,28.70
2018-08-03T12:09:07.958Z,28.10
2018-08-03T12:11:36.011Z,27.60
2018-08-03T12:14:03.883Z,27.80
2018-08-03T12:16:31.756Z,27.50
2018-08-03T12:18:59.751Z,27.70
2018-08-03T12:21:27.638Z,27.20
2018-08-03T12:23:55.570Z,27.60
2018-08-03T12:26:23.339Z,28.10
2018-08-03T12:28:51.119Z,27.90
2018-08-03T12:31:18.981Z,27.60
2018-08-03T12:33:46.686Z,26.60
2018-08-03T12:36:14.655Z,25.90
2018-08-03T12:38:42.495Z,26.00
2018-08-03T12:41:10.251Z,26.00
2018-08-03T12:43:38.193Z,26.40
2018-08-03T12:48:34.012Z,26.70
2018-08-03T12:51:01.955Z,27.50
2018-08-03T12:53:29.727Z,28.10
2018-08-03T12:55:57.679Z,28.90
2018-08-03T12:58:25.719Z,28.50
2018-08-03T13:03:21.355Z,27.50
2018-08-03T13:05:49.156Z,26.70
2018-08-03T13:08:17.043Z,27.10
2018-08-03T13:10:45.095Z,26.40
2018-08-03T13:13:12.868Z,27.00
2018-08-03T13:15:40.715Z,26.70
2018-08-03T13:18:08.903Z,26.20
2018-08-03T13:20:36.969Z,25.80
2018-08-03T13:23:05.007Z,28.00
2018-08-03T13:25:32.814Z,26.60
2018-08-03T13:28:00.958Z,25.80
2018-08-03T13:30:28.754Z,26.00
2018-08-03T13:32:56.523Z,26.60
2018-08-03T13:35:24.452Z,24.50
2018-08-03T13:37:52.330Z,26.00
2018-08-03T13:40:20.192Z,24.90
2018-08-03T13:42:48.273Z,26.00
2018-08-03T13:45:16.132Z,26.10
2018-08-03T13:47:44.018Z,26.90
2018-08-03T13:50:11.909Z,27.30
2018-08-03T13:52:39.788Z,28.10
2018-08-03T13:55:07.622Z,28.70
2018-08-03T13:57:35.551Z,27.70
2018-08-03T14:00:05.373Z,27.30
2018-08-03T14:02:33.938Z,27.50
2018-08-03T14:05:01.734Z,27.50
2018-08-03T14:07:29.795Z,26.90
2018-08-03T14:09:57.765Z,27.40
2018-08-03T14:12:25.600Z,27.50
2018-08-03T14:14:54.011Z,28.00
2018-08-03T14:17:21.853Z,29.00
2018-08-03T14:19:49.738Z,28.80
2018-08-03T14:22:17.580Z,27.80
2018-08-03T14:24:45.371Z,28.20
2018-08-03T14:27:13.211Z,28.80
2018-08-03T14:29:40.957Z,28.40
2018-08-03T14:32:08.971Z,28.70
2018-08-03T14:34:36.759Z,28.00
2018-08-03T14:37:04.705Z,28.10
2018-08-03T14:39:32.579Z,30.60
2018-08-03T14:42:00.427Z,28.80
2018-08-03T14:46:56.036Z,29.00
2018-08-03T14:49:23.874Z,28.90
2018-08-03T14:51:51.754Z,28.60
2018-08-03T14:54:19.651Z,30.00
2018-08-03T14:56:47.454Z,29.30
2018-08-03T14:59:15.223Z,29.30
2018-08-03T15:01:43.087Z,29.30
2018-08-03T15:04:11.573Z,30.40
2018-08-03T15:06:39.463Z,30.00
2018-08-03T15:09:09.615Z,29.10
2018-08-03T15:11:37.488Z,29.90
2018-08-03T15:14:05.360Z,29.40
2018-08-03T15:16:33.107Z,28.80
2018-08-03T15:21:28.824Z,28.60
2018-08-03T15:23:56.711Z,29.30
2018-08-03T15:26:24.516Z,28.50
2018-08-03T15:28:52.458Z,29.10
2018-08-03T15:31:20.324Z,30.70
2018-08-03T15:33:48.114Z,29.10
2018-08-03T15:38:43.902Z,29.00
2018-08-03T15:41:11.669Z,28.40
2018-08-03T15:43:39.468Z,28.50
2018-08-03T15:46:07.276Z,28.90
2018-08-03T15:48:35.044Z,29.20
2018-08-03T15:51:02.916Z,29.70
2018-08-03T15:55:58.659Z,28.80
2018-08-03T15:58:26.679Z,29.40
2018-08-03T16:00:54.505Z,28.70
2018-08-03T16:03:22.295Z,29.30
2018-08-03T16:05:50.200Z,29.40
2018-08-03T16:08:18.040Z,29.00
2018-08-03T16:10:46.087Z,30.90
2018-08-03T16:15:41.815Z,28.50
2018-08-03T16:18:09.594Z,29.30
2018-08-03T16:20:37.521Z,28.90
2018-08-03T16:23:05.335Z,28.70
2018-08-03T16:25:33.108Z,29.40
2018-08-03T16:28:00.963Z,29.60
2018-08-03T16:30:28.913Z,29.70
2018-08-03T16:32:56.708Z,30.20
2018-08-03T16:35:24.543Z,29.80
2018-08-03T16:37:52.299Z,29.80
2018-08-03T16:40:20.211Z,30.20
2018-08-03T16:42:48.022Z,30.20
2018-08-03T16:47:43.700Z,29.50
2018-08-03T16:50:11.595Z,30.50
2018-08-03T16:52:39.422Z,29.70
2018-08-03T16:55:07.259Z,29.80
2018-08-03T16:57:35.059Z,30.70
2018-08-03T17:00:03.475Z,30.40
2018-08-03T17:02:31.247Z,30.30
2018-08-03T17:04:59.031Z,30.00
2018-08-03T17:07:26.786Z,30.60
2018-08-03T17:09:54.671Z,30.80
2018-08-03T17:12:22.384Z,31.20
2018-08-03T17:14:50.243Z,30.00
2018-08-03T17:17:18.465Z,30.90
2018-08-03T17:19:46.314Z,30.10
2018-08-03T17:22:14.344Z,30.20
2018-08-03T17:24:42.243Z,31.40
2018-08-03T17:27:10.644Z,29.50
2018-08-03T17:29:38.616Z,30.10
2018-08-03T17:32:06.954Z,31.20
2018-08-03T17:37:07.872Z,30.30
2018-08-03T17:39:35.667Z,31.10
2018-08-03T17:42:03.531Z,31.50
2018-08-03T17:44:31.460Z,31.20
2018-08-03T17:49:27.094Z,31.30
2018-08-03T17:51:54.977Z,32.30
2018-08-03T17:56:50.615Z,31.50
2018-08-03T17:59:18.459Z,31.60
2018-08-03T18:04:14.073Z,32.10
2018-08-03T18:06:41.900Z,32.70
2018-08-03T18:09:09.727Z,32.10
2018-08-03T18:11:37.638Z,32.80
2018-08-03T18:14:05.495Z,32.40
2018-08-03T18:16:33.567Z,33.10
2018-08-03T18:19:01.540Z,34.10
2018-08-03T18:21:29.352Z,33.30
2018-08-03T18:23:57.204Z,33.40
2018-08-03T18:26:25.091Z,33.60
2018-08-03T18:28:53.011Z,33.70
2018-08-03T18:31:20.876Z,34.20
2018-08-03T18:33:48.722Z,34.30
2018-08-03T18:36:16.512Z,34.90
2018-08-03T18:38:44.467Z,34.60
2018-08-03T18:41:12.259Z,34.50
2018-08-03T18:43:40.131Z,34.90
2018-08-03T18:46:07.949Z,35.60
2018-08-03T18:48:35.835Z,35.60
2018-08-03T18:51:03.774Z,36.10
2018-08-03T18:53:31.709Z,36.50
2018-08-03T18:55:59.510Z,36.60
2018-08-03T18:58:27.351Z,36.50
2018-08-03T19:00:55.524Z,36.50
2018-08-03T19:03:23.418Z,37.10
2018-08-03T19:05:51.239Z,36.60
2018-08-03T19:08:19.227Z,37.60
2018-08-03T19:10:47.567Z,37.80
2018-08-03T19:13:15.661Z,38.10
2018-08-03T19:15:43.537Z,38.00
2018-08-03T19:18:11.471Z,38.60
2018-08-03T19:20:39.513Z,38.70
2018-08-03T19:23:07.459Z,38.50
2018-08-03T19:25:35.298Z,38.80
2018-08-03T19:28:03.075Z,39.20
2018-08-03T19:30:31.316Z,39.30
2018-08-03T19:32:59.379Z,39.50
2018-08-03T19:35:27.435Z,39.30
2018-08-03T19:37:55.230Z,39.60
2018-08-03T19:40:23.112Z,39.90
2018-08-03T19:42:51.907Z,39.90
2018-08-03T19:45:19.730Z,40.60
2018-08-03T19:47:48.131Z,41.00
2018-08-03T19:52:44.009Z,41.60
2018-08-03T19:55:11.974Z,41.80
2018-08-03T19:57:39.792Z,42.00
2018-08-03T20:00:10.978Z,42.80
2018-08-03T20:02:39.231Z,42.30
2018-08-03T20:05:12.160Z,42.20
2018-08-03T20:07:40.028Z,42.50
2018-08-03T20:10:08.313Z,42.50
2018-08-03T20:12:36.175Z,42.90
2018-08-03T20:15:04.934Z,43.10
2018-08-03T20:17:32.907Z,43.10
2018-08-03T20:20:00.745Z,43.40
2018-08-03T20:22:28.610Z,43.60
2018-08-03T20:24:56.477Z,43.70
2018-08-03T20:27:24.324Z,43.80
2018-08-03T20:29:52.147Z,43.90
2018-08-03T20:32:20.010Z,43.90
2018-08-03T20:34:47.857Z,44.10
2018-08-03T20:37:15.791Z,44.50
2018-08-03T20:39:43.679Z,44.50
2018-08-03T20:42:11.466Z,44.20
2018-08-03T20:44:39.325Z,44.70
2018-08-03T20:47:07.070Z,44.80
2018-08-03T20:49:34.926Z,45.50
2018-08-03T20:52:02.882Z,46.10
2018-08-03T20:54:30.679Z,46.60
2018-08-03T20:56:58.799Z,47.40
2018-08-03T20:59:26.628Z,47.30
2018-08-03T21:01:54.460Z,47.80
2018-08-03T21:04:22.329Z,47.90
2018-08-03T21:06:50.175Z,47.70
2018-08-03T21:09:17.968Z,48.00
2018-08-03T21:11:45.800Z,48.10
2018-08-03T21:14:13.585Z,48.80
2018-08-03T21:16:41.380Z,49.10
2018-08-03T21:19:09.250Z,48.70
2018-08-03T21:21:37.047Z,48.70
2018-08-03T21:24:05.550Z,48.80
2018-08-03T21:26:33.672Z,49.20
2018-08-03T21:29:01.544Z,49.50
2018-08-03T21:31:29.380Z,49.80
2018-08-03T21:33:57.472Z,50.90
2018-08-03T21:36:25.502Z,51.00
2018-08-03T21:38:53.294Z,51.40
2018-08-03T21:43:49.090Z,50.60
2018-08-03T21:46:16.921Z,51.20
2018-08-03T21:51:12.535Z,52.00
2018-08-03T21:53:40.350Z,51.60
2018-08-03T21:56:08.143Z,51.50
2018-08-03T21:58:35.943Z,51.60
2018-08-03T22:01:03.810Z,51.60
2018-08-03T22:03:31.713Z,52.00
2018-08-03T22:05:59.571Z,52.20
2018-08-03T22:08:27.526Z,52.30
2018-08-03T22:10:55.363Z,51.60
2018-08-03T22:13:23.199Z,52.00
2018-08-03T22:18:18.931Z,51.40
2018-08-03T22:20:46.752Z,52.10
2018-08-03T22:23:14.555Z,52.70
2018-08-03T22:25:42.503Z,52.40
2018-08-03T22:28:10.355Z,53.00
2018-08-03T22:30:38.179Z,53.00
2018-08-03T22:33:06.050Z,53.40
2018-08-03T22:35:33.867Z,53.70
2018-08-03T22:38:01.701Z,54.10
2018-08-03T22:40:29.511Z,53.90
2018-08-03T22:42:57.384Z,53.80
2018-08-03T22:45:25.188Z,53.70
2018-08-03T22:47:53.934Z,52.80
2018-08-03T22:50:21.838Z,52.50
2018-08-03T22:52:49.756Z,52.40
2018-08-03T22:55:17.522Z,52.10
2018-08-03T22:57:45.311Z,52.10
2018-08-03T23:00:13.167Z,51.70
2018-08-03T23:02:40.978Z,50.90
2018-08-03T23:05:08.894Z,51.50
2018-08-03T23:07:36.697Z,51.50
2018-08-03T23:10:05.474Z,51.30
2018-08-03T23:12:33.322Z,50.80
2018-08-03T23:15:01.056Z,50.90
2018-08-03T23:17:28.845Z,51.40
2018-08-03T23:19:56.759Z,50.80
2018-08-03T23:22:24.588Z,51.10
2018-08-03T23:24:52.429Z,51.90
2018-08-03T23:27:20.179Z,51.10
2018-08-03T23:29:48.035Z,51.80
2018-08-03T23:32:15.786Z,50.90
2018-08-03T23:34:43.599Z,51.60
2018-08-03T23:39:39.188Z,52.30
2018-08-03T23:42:06.970Z,51.70
2018-08-03T23:44:34.736Z,51.70
2018-08-03T23:47:02.818Z,53.00
2018-08-03T23:49:30.598Z,53.30
2018-08-03T23:51:58.467Z,52.80
2018-08-03T23:54:26.293Z,52.80
2018-08-03T23:56:54.155Z,53.40
2018-08-03T23:59:21.989Z,53.60
